sensor_id;sensor_type;location;lat;lon;timestamp;P1;durP1;ratioP1;P2;durP2;ratioP2
6667;SDS011;3370;47.712;9.082;2023-07-20T00:01:28;7.27;;;3.90;;
6667;SDS011;3370;47.712;9.082;2023-07-20T00:03:54;4.47;;;3.10;;
6667;SDS011;3370;47.712;9.082;2023-07-20T00:06:20;4.27;;;3.50;;
6667;SDS011;3370;47.712;9.082;2023-07-20T00:08:47;9.17;;;3.80;;
6667;SDS011;3370;47.712;9.082;2023-07-20T00:11:13;5.87;;;3.40;;
6667;SDS011;3370;47.712;9.082;2023-07-20T00:13:39;8.10;;;3.00;;
6667;SDS011;3370;47.712;9.082;2023-07-20T00:16:05;8.30;;;3.33;;
6667;SDS011;3370;47.712;9.082;2023-07-20T00:18:31;6.00;;;3.20;;
6667;SDS011;3370;47.712;9.082;2023-07-20T00:20:57;10.00;;;3.83;;
6667;SDS011;3370;47.712;9.082;2023-07-20T00:23:25;4.90;;;3.40;;
6667;SDS011;3370;47.712;9.082;2023-07-20T00:25:51;5.00;;;3.03;;
6667;SDS011;3370;47.712;9.082;2023-07-20T00:28:17;4.43;;;2.97;;
6667;SDS011;3370;47.712;9.082;2023-07-20T00:30:43;3.37;;;3.07;;
6667;SDS011;3370;47.712;9.082;2023-07-20T00:33:10;3.80;;;3.00;;
6667;SDS011;3370;47.712;9.082;2023-07-20T00:35:37;4.07;;;2.57;;
6667;SDS011;3370;47.712;9.082;2023-07-20T00:38:04;5.53;;;3.60;;
6667;SDS011;3370;47.712;9.082;2023-07-20T00:40:36;4.67;;;3.20;;
6667;SDS011;3370;47.712;9.082;2023-07-20T00:43:06;6.27;;;3.13;;
6667;SDS011;3370;47.712;9.082;2023-07-20T00:45:33;4.97;;;2.63;;
6667;SDS011;3370;47.712;9.082;2023-07-20T00:50:33;2.80;;;2.60;;
6667;SDS011;3370;47.712;9.082;2023-07-20T00:53:00;3.30;;;3.00;;
6667;SDS011;3370;47.712;9.082;2023-07-20T00:55:30;6.80;;;2.90;;
6667;SDS011;3370;47.712;9.082;2023-07-20T00:57:56;6.33;;;3.53;;
6667;SDS011;3370;47.712;9.082;2023-07-20T01:00:23;6.67;;;3.13;;
6667;SDS011;3370;47.712;9.082;2023-07-20T01:02:48;6.20;;;2.80;;
6667;SDS011;3370;47.712;9.082;2023-07-20T01:05:14;6.60;;;2.93;;
6667;SDS011;3370;47.712;9.082;2023-07-20T01:10:31;3.97;;;3.10;;
6667;SDS011;3370;47.712;9.082;2023-07-20T01:13:33;3.33;;;2.43;;
6667;SDS011;3370;47.712;9.082;2023-07-20T01:16:01;5.63;;;3.20;;
6667;SDS011;3370;47.712;9.082;2023-07-20T01:18:27;5.10;;;2.40;;
6667;SDS011;3370;47.712;9.082;2023-07-20T01:20:59;3.13;;;2.47;;
6667;SDS011;3370;47.712;9.082;2023-07-20T01:26:27;5.87;;;2.90;;
6667;SDS011;3370;47.712;9.082;2023-07-20T01:29:41;6.83;;;3.13;;
6667;SDS011;3370;47.712;9.082;2023-07-20T01:32:09;9.93;;;3.20;;
6667;SDS011;3370;47.712;9.082;2023-07-20T01:34:35;7.77;;;3.13;;
6667;SDS011;3370;47.712;9.082;2023-07-20T01:37:04;3.30;;;2.33;;
6667;SDS011;3370;47.712;9.082;2023-07-20T01:39:31;3.27;;;2.60;;
6667;SDS011;3370;47.712;9.082;2023-07-20T01:41:58;3.63;;;2.30;;
6667;SDS011;3370;47.712;9.082;2023-07-20T01:44:24;3.10;;;2.20;;
6667;SDS011;3370;47.712;9.082;2023-07-20T01:46:50;7.13;;;3.07;;
6667;SDS011;3370;47.712;9.082;2023-07-20T01:49:16;6.07;;;2.60;;
6667;SDS011;3370;47.712;9.082;2023-07-20T01:51:41;4.00;;;2.60;;
6667;SDS011;3370;47.712;9.082;2023-07-20T01:54:07;3.40;;;2.47;;
6667;SDS011;3370;47.712;9.082;2023-07-20T01:56:33;3.27;;;2.30;;
6667;SDS011;3370;47.712;9.082;2023-07-20T01:58:59;4.80;;;2.70;;
6667;SDS011;3370;47.712;9.082;2023-07-20T02:01:24;4.73;;;2.60;;
6667;SDS011;3370;47.712;9.082;2023-07-20T02:03:50;4.23;;;2.53;;
6667;SDS011;3370;47.712;9.082;2023-07-20T02:06:16;4.80;;;2.97;;
6667;SDS011;3370;47.712;9.082;2023-07-20T02:08:42;4.83;;;2.33;;
6667;SDS011;3370;47.712;9.082;2023-07-20T02:11:08;7.63;;;2.40;;
6667;SDS011;3370;47.712;9.082;2023-07-20T02:13:34;4.10;;;2.50;;
6667;SDS011;3370;47.712;9.082;2023-07-20T02:16:01;3.60;;;2.60;;
6667;SDS011;3370;47.712;9.082;2023-07-20T02:18:26;6.37;;;2.70;;
6667;SDS011;3370;47.712;9.082;2023-07-20T02:20:53;3.13;;;2.70;;
6667;SDS011;3370;47.712;9.082;2023-07-20T02:23:19;4.20;;;2.73;;
6667;SDS011;3370;47.712;9.082;2023-07-20T02:25:45;2.97;;;2.77;;
6667;SDS011;3370;47.712;9.082;2023-07-20T02:28:13;2.33;;;2.13;;
6667;SDS011;3370;47.712;9.082;2023-07-20T02:30:40;4.20;;;2.60;;
6667;SDS011;3370;47.712;9.082;2023-07-20T02:33:06;2.70;;;2.50;;
6667;SDS011;3370;47.712;9.082;2023-07-20T02:35:32;4.10;;;2.70;;
6667;SDS011;3370;47.712;9.082;2023-07-20T02:37:58;4.83;;;2.70;;
6667;SDS011;3370;47.712;9.082;2023-07-20T02:40:24;4.57;;;2.90;;
6667;SDS011;3370;47.712;9.082;2023-07-20T02:42:50;3.40;;;3.10;;
6667;SDS011;3370;47.712;9.082;2023-07-20T02:45:16;3.77;;;2.97;;
6667;SDS011;3370;47.712;9.082;2023-07-20T02:47:42;3.10;;;2.80;;
6667;SDS011;3370;47.712;9.082;2023-07-20T02:50:07;5.87;;;3.10;;
6667;SDS011;3370;47.712;9.082;2023-07-20T02:52:34;4.00;;;3.20;;
6667;SDS011;3370;47.712;9.082;2023-07-20T02:55:00;5.73;;;3.20;;
6667;SDS011;3370;47.712;9.082;2023-07-20T02:57:25;5.33;;;3.10;;
6667;SDS011;3370;47.712;9.082;2023-07-20T02:59:52;5.07;;;2.97;;
6667;SDS011;3370;47.712;9.082;2023-07-20T03:02:18;9.40;;;2.87;;
6667;SDS011;3370;47.712;9.082;2023-07-20T03:04:44;4.43;;;3.00;;
6667;SDS011;3370;47.712;9.082;2023-07-20T03:07:10;5.90;;;2.83;;
6667;SDS011;3370;47.712;9.082;2023-07-20T03:09:35;5.27;;;2.90;;
6667;SDS011;3370;47.712;9.082;2023-07-20T03:12:01;6.37;;;3.37;;
6667;SDS011;3370;47.712;9.082;2023-07-20T03:14:29;17.40;;;3.33;;
6667;SDS011;3370;47.712;9.082;2023-07-20T03:16:55;6.40;;;2.90;;
6667;SDS011;3370;47.712;9.082;2023-07-20T03:19:21;7.00;;;3.60;;
6667;SDS011;3370;47.712;9.082;2023-07-20T03:21:47;3.83;;;3.40;;
6667;SDS011;3370;47.712;9.082;2023-07-20T03:24:13;4.90;;;3.47;;
6667;SDS011;3370;47.712;9.082;2023-07-20T03:26:38;14.57;;;2.97;;
6667;SDS011;3370;47.712;9.082;2023-07-20T03:29:04;3.50;;;2.77;;
6667;SDS011;3370;47.712;9.082;2023-07-20T03:31:31;6.90;;;3.27;;
6667;SDS011;3370;47.712;9.082;2023-07-20T03:33:57;11.13;;;4.23;;
6667;SDS011;3370;47.712;9.082;2023-07-20T03:36:23;8.03;;;3.23;;
6667;SDS011;3370;47.712;9.082;2023-07-20T03:38:49;4.80;;;3.57;;
6667;SDS011;3370;47.712;9.082;2023-07-20T03:41:15;5.03;;;2.93;;
6667;SDS011;3370;47.712;9.082;2023-07-20T03:43:41;10.30;;;3.13;;
6667;SDS011;3370;47.712;9.082;2023-07-20T03:46:07;7.70;;;3.30;;
6667;SDS011;3370;47.712;9.082;2023-07-20T03:48:33;7.43;;;3.27;;
6667;SDS011;3370;47.712;9.082;2023-07-20T03:50:59;5.27;;;3.70;;
6667;SDS011;3370;47.712;9.082;2023-07-20T03:53:28;6.50;;;3.43;;
6667;SDS011;3370;47.712;9.082;2023-07-20T03:55:53;6.77;;;3.33;;
6667;SDS011;3370;47.712;9.082;2023-07-20T03:58:20;5.80;;;3.10;;
6667;SDS011;3370;47.712;9.082;2023-07-20T04:00:47;7.80;;;3.30;;
6667;SDS011;3370;47.712;9.082;2023-07-20T04:03:15;5.83;;;3.50;;
6667;SDS011;3370;47.712;9.082;2023-07-20T04:05:43;6.53;;;3.73;;
6667;SDS011;3370;47.712;9.082;2023-07-20T04:08:09;5.80;;;3.60;;
6667;SDS011;3370;47.712;9.082;2023-07-20T04:10:38;10.37;;;3.43;;
6667;SDS011;3370;47.712;9.082;2023-07-20T04:13:08;4.10;;;3.67;;
6667;SDS011;3370;47.712;9.082;2023-07-20T04:15:33;13.73;;;3.77;;
6667;SDS011;3370;47.712;9.082;2023-07-20T04:17:59;4.60;;;3.33;;
6667;SDS011;3370;47.712;9.082;2023-07-20T04:20:25;5.30;;;3.30;;
6667;SDS011;3370;47.712;9.082;2023-07-20T04:22:51;6.90;;;3.70;;
6667;SDS011;3370;47.712;9.082;2023-07-20T04:25:17;6.27;;;3.33;;
6667;SDS011;3370;47.712;9.082;2023-07-20T04:27:43;5.30;;;3.20;;
6667;SDS011;3370;47.712;9.082;2023-07-20T04:30:09;3.90;;;3.60;;
6667;SDS011;3370;47.712;9.082;2023-07-20T04:32:37;6.60;;;3.90;;
6667;SDS011;3370;47.712;9.082;2023-07-20T04:35:10;4.57;;;3.30;;
6667;SDS011;3370;47.712;9.082;2023-07-20T04:38:00;6.20;;;3.77;;
6667;SDS011;3370;47.712;9.082;2023-07-20T04:40:25;5.77;;;3.73;;
6667;SDS011;3370;47.712;9.082;2023-07-20T04:42:51;5.37;;;3.30;;
6667;SDS011;3370;47.712;9.082;2023-07-20T04:45:17;4.10;;;3.27;;
6667;SDS011;3370;47.712;9.082;2023-07-20T04:47:44;3.70;;;3.40;;
6667;SDS011;3370;47.712;9.082;2023-07-20T04:50:09;3.47;;;3.17;;
6667;SDS011;3370;47.712;9.082;2023-07-20T04:52:35;3.83;;;3.37;;
6667;SDS011;3370;47.712;9.082;2023-07-20T04:55:01;6.20;;;4.00;;
6667;SDS011;3370;47.712;9.082;2023-07-20T04:57:29;4.53;;;3.80;;
6667;SDS011;3370;47.712;9.082;2023-07-20T04:59:55;8.13;;;3.10;;
6667;SDS011;3370;47.712;9.082;2023-07-20T05:02:21;4.13;;;3.23;;
6667;SDS011;3370;47.712;9.082;2023-07-20T05:04:46;4.07;;;3.67;;
6667;SDS011;3370;47.712;9.082;2023-07-20T05:07:12;12.53;;;3.80;;
6667;SDS011;3370;47.712;9.082;2023-07-20T05:09:38;7.23;;;3.70;;
6667;SDS011;3370;47.712;9.082;2023-07-20T05:12:04;4.27;;;2.90;;
6667;SDS011;3370;47.712;9.082;2023-07-20T05:14:30;9.17;;;3.93;;
6667;SDS011;3370;47.712;9.082;2023-07-20T05:16:56;7.47;;;3.50;;
6667;SDS011;3370;47.712;9.082;2023-07-20T05:19:21;4.13;;;3.73;;
6667;SDS011;3370;47.712;9.082;2023-07-20T05:21:47;3.23;;;2.93;;
6667;SDS011;3370;47.712;9.082;2023-07-20T05:24:13;5.20;;;3.90;;
6667;SDS011;3370;47.712;9.082;2023-07-20T05:26:39;5.13;;;3.20;;
6667;SDS011;3370;47.712;9.082;2023-07-20T05:29:04;8.20;;;4.50;;
6667;SDS011;3370;47.712;9.082;2023-07-20T05:31:30;9.23;;;3.87;;
6667;SDS011;3370;47.712;9.082;2023-07-20T05:33:56;8.93;;;3.97;;
6667;SDS011;3370;47.712;9.082;2023-07-20T05:36:22;12.30;;;3.70;;
6667;SDS011;3370;47.712;9.082;2023-07-20T05:38:48;13.33;;;3.80;;
6667;SDS011;3370;47.712;9.082;2023-07-20T05:41:14;8.00;;;3.63;;
6667;SDS011;3370;47.712;9.082;2023-07-20T05:43:40;4.03;;;3.30;;
6667;SDS011;3370;47.712;9.082;2023-07-20T05:46:07;5.50;;;3.10;;
6667;SDS011;3370;47.712;9.082;2023-07-20T05:48:32;4.00;;;3.67;;
6667;SDS011;3370;47.712;9.082;2023-07-20T05:50:58;5.23;;;4.20;;
6667;SDS011;3370;47.712;9.082;2023-07-20T05:53:24;5.47;;;3.40;;
6667;SDS011;3370;47.712;9.082;2023-07-20T05:55:53;6.90;;;3.57;;
6667;SDS011;3370;47.712;9.082;2023-07-20T05:58:20;4.77;;;3.80;;
6667;SDS011;3370;47.712;9.082;2023-07-20T06:00:49;4.80;;;3.30;;
6667;SDS011;3370;47.712;9.082;2023-07-20T06:03:15;5.03;;;3.50;;
6667;SDS011;3370;47.712;9.082;2023-07-20T06:05:41;6.20;;;3.80;;
6667;SDS011;3370;47.712;9.082;2023-07-20T06:08:08;5.60;;;3.60;;
6667;SDS011;3370;47.712;9.082;2023-07-20T06:10:34;3.57;;;3.10;;
6667;SDS011;3370;47.712;9.082;2023-07-20T06:12:59;5.27;;;3.63;;
6667;SDS011;3370;47.712;9.082;2023-07-20T06:17:59;4.30;;;3.70;;
6667;SDS011;3370;47.712;9.082;2023-07-20T06:20:26;5.17;;;3.57;;
6667;SDS011;3370;47.712;9.082;2023-07-20T06:22:52;4.53;;;3.30;;
6667;SDS011;3370;47.712;9.082;2023-07-20T06:25:17;6.20;;;3.30;;
6667;SDS011;3370;47.712;9.082;2023-07-20T06:27:43;6.40;;;3.50;;
6667;SDS011;3370;47.712;9.082;2023-07-20T06:30:09;4.73;;;3.40;;
6667;SDS011;3370;47.712;9.082;2023-07-20T06:32:35;10.00;;;4.00;;
6667;SDS011;3370;47.712;9.082;2023-07-20T06:35:01;3.90;;;3.47;;
6667;SDS011;3370;47.712;9.082;2023-07-20T06:37:27;5.23;;;3.37;;
6667;SDS011;3370;47.712;9.082;2023-07-20T06:39:53;5.80;;;3.47;;
6667;SDS011;3370;47.712;9.082;2023-07-20T06:42:19;3.87;;;3.47;;
6667;SDS011;3370;47.712;9.082;2023-07-20T06:44:44;3.85;;;3.40;;
6667;SDS011;3370;47.712;9.082;2023-07-20T06:47:10;4.40;;;3.47;;
6667;SDS011;3370;47.712;9.082;2023-07-20T06:49:36;5.60;;;3.50;;
6667;SDS011;3370;47.712;9.082;2023-07-20T06:52:02;7.57;;;3.20;;
6667;SDS011;3370;47.712;9.082;2023-07-20T06:54:28;5.40;;;3.37;;
6667;SDS011;3370;47.712;9.082;2023-07-20T06:56:53;3.60;;;3.10;;
6667;SDS011;3370;47.712;9.082;2023-07-20T06:59:19;5.77;;;3.77;;
6667;SDS011;3370;47.712;9.082;2023-07-20T07:01:46;4.67;;;3.63;;
6667;SDS011;3370;47.712;9.082;2023-07-20T07:04:11;5.33;;;3.77;;
6667;SDS011;3370;47.712;9.082;2023-07-20T07:06:37;6.43;;;3.47;;
6667;SDS011;3370;47.712;9.082;2023-07-20T07:09:03;5.47;;;3.57;;
6667;SDS011;3370;47.712;9.082;2023-07-20T07:11:29;5.70;;;3.90;;
6667;SDS011;3370;47.712;9.082;2023-07-20T07:13:55;5.47;;;3.17;;
6667;SDS011;3370;47.712;9.082;2023-07-20T07:16:20;4.43;;;3.70;;
6667;SDS011;3370;47.712;9.082;2023-07-20T07:18:46;7.90;;;3.20;;
6667;SDS011;3370;47.712;9.082;2023-07-20T07:21:13;13.60;;;3.10;;
6667;SDS011;3370;47.712;9.082;2023-07-20T07:23:39;4.47;;;2.80;;
6667;SDS011;3370;47.712;9.082;2023-07-20T07:26:04;14.87;;;3.33;;
6667;SDS011;3370;47.712;9.082;2023-07-20T07:28:30;3.50;;;3.20;;
6667;SDS011;3370;47.712;9.082;2023-07-20T07:30:59;6.23;;;3.60;;
6667;SDS011;3370;47.712;9.082;2023-07-20T07:33:25;4.50;;;3.90;;
6667;SDS011;3370;47.712;9.082;2023-07-20T07:35:51;5.20;;;3.90;;
6667;SDS011;3370;47.712;9.082;2023-07-20T07:38:17;7.77;;;3.80;;
6667;SDS011;3370;47.712;9.082;2023-07-20T07:40:44;5.63;;;3.63;;
6667;SDS011;3370;47.712;9.082;2023-07-20T07:43:12;4.77;;;2.93;;
6667;SDS011;3370;47.712;9.082;2023-07-20T07:45:40;6.43;;;3.33;;
6667;SDS011;3370;47.712;9.082;2023-07-20T07:48:06;8.17;;;3.77;;
6667;SDS011;3370;47.712;9.082;2023-07-20T07:50:32;5.93;;;3.13;;
6667;SDS011;3370;47.712;9.082;2023-07-20T07:52:59;9.50;;;3.77;;
6667;SDS011;3370;47.712;9.082;2023-07-20T07:55:25;5.30;;;3.63;;
6667;SDS011;3370;47.712;9.082;2023-07-20T07:57:54;9.07;;;4.70;;
6667;SDS011;3370;47.712;9.082;2023-07-20T08:00:20;6.70;;;3.27;;
6667;SDS011;3370;47.712;9.082;2023-07-20T08:02:46;4.83;;;3.40;;
6667;SDS011;3370;47.712;9.082;2023-07-20T08:05:13;6.17;;;3.60;;
6667;SDS011;3370;47.712;9.082;2023-07-20T08:07:39;6.13;;;3.80;;
6667;SDS011;3370;47.712;9.082;2023-07-20T08:10:05;13.80;;;4.37;;
6667;SDS011;3370;47.712;9.082;2023-07-20T08:12:32;6.90;;;4.10;;
6667;SDS011;3370;47.712;9.082;2023-07-20T08:14:58;3.70;;;3.40;;
6667;SDS011;3370;47.712;9.082;2023-07-20T08:17:24;3.67;;;3.37;;
6667;SDS011;3370;47.712;9.082;2023-07-20T08:19:50;7.67;;;3.50;;
6667;SDS011;3370;47.712;9.082;2023-07-20T08:22:16;14.30;;;4.40;;
6667;SDS011;3370;47.712;9.082;2023-07-20T08:24:42;8.60;;;3.83;;
6667;SDS011;3370;47.712;9.082;2023-07-20T08:27:09;25.13;;;4.70;;
6667;SDS011;3370;47.712;9.082;2023-07-20T08:29:35;6.07;;;4.13;;
6667;SDS011;3370;47.712;9.082;2023-07-20T08:32:02;4.30;;;3.30;;
6667;SDS011;3370;47.712;9.082;2023-07-20T08:34:30;4.30;;;3.90;;
6667;SDS011;3370;47.712;9.082;2023-07-20T08:36:56;9.27;;;3.63;;
6667;SDS011;3370;47.712;9.082;2023-07-20T08:39:23;5.60;;;3.57;;
6667;SDS011;3370;47.712;9.082;2023-07-20T08:41:49;3.97;;;3.27;;
6667;SDS011;3370;47.712;9.082;2023-07-20T08:44:16;4.27;;;3.13;;
6667;SDS011;3370;47.712;9.082;2023-07-20T08:46:43;4.40;;;3.10;;
6667;SDS011;3370;47.712;9.082;2023-07-20T08:49:09;3.43;;;3.00;;
6667;SDS011;3370;47.712;9.082;2023-07-20T08:51:36;4.03;;;3.50;;
6667;SDS011;3370;47.712;9.082;2023-07-20T08:54:04;5.63;;;3.23;;
6667;SDS011;3370;47.712;9.082;2023-07-20T08:56:31;6.93;;;2.87;;
6667;SDS011;3370;47.712;9.082;2023-07-20T08:58:58;9.93;;;2.97;;
6667;SDS011;3370;47.712;9.082;2023-07-20T09:01:26;3.00;;;2.70;;
6667;SDS011;3370;47.712;9.082;2023-07-20T09:03:53;2.90;;;2.50;;
6667;SDS011;3370;47.712;9.082;2023-07-20T09:06:19;5.90;;;2.87;;
6667;SDS011;3370;47.712;9.082;2023-07-20T09:08:44;8.73;;;3.10;;
6667;SDS011;3370;47.712;9.082;2023-07-20T09:11:11;6.30;;;2.77;;
6667;SDS011;3370;47.712;9.082;2023-07-20T09:13:38;7.50;;;2.67;;
6667;SDS011;3370;47.712;9.082;2023-07-20T09:16:04;4.20;;;2.77;;
6667;SDS011;3370;47.712;9.082;2023-07-20T09:18:31;3.73;;;2.80;;
6667;SDS011;3370;47.712;9.082;2023-07-20T09:21:01;4.70;;;3.00;;
6667;SDS011;3370;47.712;9.082;2023-07-20T09:23:32;4.80;;;2.80;;
6667;SDS011;3370;47.712;9.082;2023-07-20T09:26:11;3.30;;;2.70;;
6667;SDS011;3370;47.712;9.082;2023-07-20T09:28:49;4.93;;;2.77;;
6667;SDS011;3370;47.712;9.082;2023-07-20T09:31:18;4.03;;;3.13;;
6667;SDS011;3370;47.712;9.082;2023-07-20T09:33:46;3.53;;;2.80;;
6667;SDS011;3370;47.712;9.082;2023-07-20T09:36:14;4.70;;;2.77;;
6667;SDS011;3370;47.712;9.082;2023-07-20T09:38:41;4.20;;;2.50;;
6667;SDS011;3370;47.712;9.082;2023-07-20T09:41:08;9.10;;;3.17;;
6667;SDS011;3370;47.712;9.082;2023-07-20T09:43:43;3.87;;;2.60;;
6667;SDS011;3370;47.712;9.082;2023-07-20T09:46:10;4.10;;;3.37;;
6667;SDS011;3370;47.712;9.082;2023-07-20T09:48:36;5.83;;;3.43;;
6667;SDS011;3370;47.712;9.082;2023-07-20T09:51:02;4.80;;;2.70;;
6667;SDS011;3370;47.712;9.082;2023-07-20T09:53:31;4.27;;;2.77;;
6667;SDS011;3370;47.712;9.082;2023-07-20T09:55:58;3.50;;;3.20;;
6667;SDS011;3370;47.712;9.082;2023-07-20T09:58:25;4.27;;;2.60;;
6667;SDS011;3370;47.712;9.082;2023-07-20T10:00:52;4.87;;;3.17;;
6667;SDS011;3370;47.712;9.082;2023-07-20T10:03:26;6.10;;;2.40;;
6667;SDS011;3370;47.712;9.082;2023-07-20T10:06:08;3.40;;;2.73;;
6667;SDS011;3370;47.712;9.082;2023-07-20T10:08:40;3.87;;;2.93;;
6667;SDS011;3370;47.712;9.082;2023-07-20T10:11:07;5.97;;;3.20;;
6667;SDS011;3370;47.712;9.082;2023-07-20T10:13:38;7.47;;;3.13;;
6667;SDS011;3370;47.712;9.082;2023-07-20T10:16:09;4.97;;;3.20;;
6667;SDS011;3370;47.712;9.082;2023-07-20T10:21:31;5.20;;;3.23;;
6667;SDS011;3370;47.712;9.082;2023-07-20T10:24:01;9.37;;;3.00;;
6667;SDS011;3370;47.712;9.082;2023-07-20T10:26:27;5.13;;;3.10;;
6667;SDS011;3370;47.712;9.082;2023-07-20T10:28:53;3.60;;;3.10;;
6667;SDS011;3370;47.712;9.082;2023-07-20T10:31:20;4.33;;;2.90;;
6667;SDS011;3370;47.712;9.082;2023-07-20T10:33:48;8.47;;;2.30;;
6667;SDS011;3370;47.712;9.082;2023-07-20T10:36:15;3.80;;;3.07;;
6667;SDS011;3370;47.712;9.082;2023-07-20T10:38:42;3.63;;;2.70;;
6667;SDS011;3370;47.712;9.082;2023-07-20T10:41:34;5.03;;;3.00;;
6667;SDS011;3370;47.712;9.082;2023-07-20T10:44:04;4.30;;;3.20;;
6667;SDS011;3370;47.712;9.082;2023-07-20T10:46:43;7.50;;;2.93;;
6667;SDS011;3370;47.712;9.082;2023-07-20T10:49:10;9.30;;;3.23;;
6667;SDS011;3370;47.712;9.082;2023-07-20T10:51:41;7.43;;;3.10;;
6667;SDS011;3370;47.712;9.082;2023-07-20T10:54:09;8.03;;;2.60;;
6667;SDS011;3370;47.712;9.082;2023-07-20T10:56:55;6.47;;;2.90;;
6667;SDS011;3370;47.712;9.082;2023-07-20T11:00:07;6.03;;;3.27;;
6667;SDS011;3370;47.712;9.082;2023-07-20T11:02:42;6.13;;;2.63;;
6667;SDS011;3370;47.712;9.082;2023-07-20T11:05:08;5.00;;;3.10;;
6667;SDS011;3370;47.712;9.082;2023-07-20T11:07:57;5.53;;;3.10;;
6667;SDS011;3370;47.712;9.082;2023-07-20T11:10:23;4.17;;;2.37;;
6667;SDS011;3370;47.712;9.082;2023-07-20T11:18:25;10.50;;;2.60;;
6667;SDS011;3370;47.712;9.082;2023-07-20T11:20:51;2.43;;;2.23;;
6667;SDS011;3370;47.712;9.082;2023-07-20T11:23:21;2.33;;;2.13;;
6667;SDS011;3370;47.712;9.082;2023-07-20T11:25:47;8.30;;;2.40;;
6667;SDS011;3370;47.712;9.082;2023-07-20T11:28:13;6.47;;;2.20;;
6667;SDS011;3370;47.712;9.082;2023-07-20T11:30:39;6.70;;;2.40;;
6667;SDS011;3370;47.712;9.082;2023-07-20T11:33:05;7.73;;;2.07;;
6667;SDS011;3370;47.712;9.082;2023-07-20T11:35:44;5.90;;;3.03;;
6667;SDS011;3370;47.712;9.082;2023-07-20T11:38:13;7.10;;;2.73;;
6667;SDS011;3370;47.712;9.082;2023-07-20T11:40:45;3.70;;;2.50;;
6667;SDS011;3370;47.712;9.082;2023-07-20T11:43:14;3.90;;;2.77;;
6667;SDS011;3370;47.712;9.082;2023-07-20T11:45:40;5.13;;;2.63;;
6667;SDS011;3370;47.712;9.082;2023-07-20T11:48:06;6.33;;;2.37;;
6667;SDS011;3370;47.712;9.082;2023-07-20T11:50:32;5.20;;;2.90;;
6667;SDS011;3370;47.712;9.082;2023-07-20T11:53:05;3.97;;;2.33;;
6667;SDS011;3370;47.712;9.082;2023-07-20T11:55:31;4.40;;;2.60;;
6667;SDS011;3370;47.712;9.082;2023-07-20T11:58:07;2.30;;;2.10;;
6667;SDS011;3370;47.712;9.082;2023-07-20T12:00:35;4.37;;;2.50;;
6667;SDS011;3370;47.712;9.082;2023-07-20T12:03:05;3.63;;;2.40;;
6667;SDS011;3370;47.712;9.082;2023-07-20T12:05:32;6.20;;;2.50;;
6667;SDS011;3370;47.712;9.082;2023-07-20T12:07:58;6.77;;;2.13;;
6667;SDS011;3370;47.712;9.082;2023-07-20T12:10:25;3.13;;;2.30;;
6667;SDS011;3370;47.712;9.082;2023-07-20T12:13:00;5.40;;;2.23;;
6667;SDS011;3370;47.712;9.082;2023-07-20T12:15:30;4.20;;;2.30;;
6667;SDS011;3370;47.712;9.082;2023-07-20T12:17:57;3.90;;;2.20;;
6667;SDS011;3370;47.712;9.082;2023-07-20T12:20:36;2.47;;;2.27;;
6667;SDS011;3370;47.712;9.082;2023-07-20T12:23:09;2.10;;;1.90;;
6667;SDS011;3370;47.712;9.082;2023-07-20T12:25:38;2.67;;;2.03;;
6667;SDS011;3370;47.712;9.082;2023-07-20T12:28:10;2.37;;;2.17;;
6667;SDS011;3370;47.712;9.082;2023-07-20T12:30:37;4.07;;;2.27;;
6667;SDS011;3370;47.712;9.082;2023-07-20T12:33:04;3.03;;;2.10;;
6667;SDS011;3370;47.712;9.082;2023-07-20T12:35:31;3.27;;;2.43;;
6667;SDS011;3370;47.712;9.082;2023-07-20T12:37:58;4.60;;;2.20;;
6667;SDS011;3370;47.712;9.082;2023-07-20T12:40:24;2.93;;;1.93;;
6667;SDS011;3370;47.712;9.082;2023-07-20T12:42:50;3.80;;;2.10;;
6667;SDS011;3370;47.712;9.082;2023-07-20T12:45:16;2.30;;;2.10;;
6667;SDS011;3370;47.712;9.082;2023-07-20T12:47:42;5.60;;;2.90;;
6667;SDS011;3370;47.712;9.082;2023-07-20T12:50:09;6.20;;;2.00;;
6667;SDS011;3370;47.712;9.082;2023-07-20T12:52:36;2.40;;;1.97;;
6667;SDS011;3370;47.712;9.082;2023-07-20T12:55:06;5.23;;;2.30;;
6667;SDS011;3370;47.712;9.082;2023-07-20T12:57:36;4.30;;;2.37;;
6667;SDS011;3370;47.712;9.082;2023-07-20T13:00:03;4.37;;;1.97;;
6667;SDS011;3370;47.712;9.082;2023-07-20T13:02:32;5.47;;;2.20;;
6667;SDS011;3370;47.712;9.082;2023-07-20T13:04:58;5.20;;;2.10;;
6667;SDS011;3370;47.712;9.082;2023-07-20T13:07:31;5.10;;;2.27;;
6667;SDS011;3370;47.712;9.082;2023-07-20T13:10:02;4.03;;;2.00;;
6667;SDS011;3370;47.712;9.082;2023-07-20T13:12:31;3.63;;;2.17;;
6667;SDS011;3370;47.712;9.082;2023-07-20T13:14:58;3.77;;;2.43;;
6667;SDS011;3370;47.712;9.082;2023-07-20T13:17:27;6.10;;;1.90;;
6667;SDS011;3370;47.712;9.082;2023-07-20T13:19:54;1.83;;;1.73;;
6667;SDS011;3370;47.712;9.082;2023-07-20T13:22:21;5.37;;;2.00;;
6667;SDS011;3370;47.712;9.082;2023-07-20T13:24:46;2.97;;;1.83;;
6667;SDS011;3370;47.712;9.082;2023-07-20T13:27:13;3.30;;;2.10;;
6667;SDS011;3370;47.712;9.082;2023-07-20T13:29:43;4.23;;;2.47;;
6667;SDS011;3370;47.712;9.082;2023-07-20T13:32:09;6.90;;;2.00;;
6667;SDS011;3370;47.712;9.082;2023-07-20T13:34:36;10.80;;;2.63;;
6667;SDS011;3370;47.712;9.082;2023-07-20T13:37:02;2.70;;;2.03;;
6667;SDS011;3370;47.712;9.082;2023-07-20T13:39:28;4.70;;;1.80;;
6667;SDS011;3370;47.712;9.082;2023-07-20T13:41:54;6.20;;;2.10;;
6667;SDS011;3370;47.712;9.082;2023-07-20T13:44:20;5.23;;;1.90;;
6667;SDS011;3370;47.712;9.082;2023-07-20T13:46:46;2.50;;;1.93;;
6667;SDS011;3370;47.712;9.082;2023-07-20T13:49:13;3.97;;;2.30;;
6667;SDS011;3370;47.712;9.082;2023-07-20T13:51:39;4.03;;;2.10;;
6667;SDS011;3370;47.712;9.082;2023-07-20T13:54:09;2.33;;;1.90;;
6667;SDS011;3370;47.712;9.082;2023-07-20T13:56:35;7.37;;;2.27;;
6667;SDS011;3370;47.712;9.082;2023-07-20T13:59:01;6.87;;;2.23;;
6667;SDS011;3370;47.712;9.082;2023-07-20T14:01:26;3.77;;;2.23;;
6667;SDS011;3370;47.712;9.082;2023-07-20T14:03:53;8.63;;;2.23;;
6667;SDS011;3370;47.712;9.082;2023-07-20T14:06:21;3.43;;;2.37;;
6667;SDS011;3370;47.712;9.082;2023-07-20T14:08:47;2.73;;;2.07;;
6667;SDS011;3370;47.712;9.082;2023-07-20T14:11:14;8.97;;;2.50;;
6667;SDS011;3370;47.712;9.082;2023-07-20T14:13:40;4.17;;;1.80;;
6667;SDS011;3370;47.712;9.082;2023-07-20T14:16:06;5.90;;;1.70;;
6667;SDS011;3370;47.712;9.082;2023-07-20T14:18:33;2.13;;;2.03;;
6667;SDS011;3370;47.712;9.082;2023-07-20T14:20:59;4.00;;;2.23;;
6667;SDS011;3370;47.712;9.082;2023-07-20T14:23:27;2.47;;;2.13;;
6667;SDS011;3370;47.712;9.082;2023-07-20T14:25:52;3.30;;;1.80;;
6667;SDS011;3370;47.712;9.082;2023-07-20T14:28:18;4.40;;;2.17;;
6667;SDS011;3370;47.712;9.082;2023-07-20T14:30:45;3.37;;;1.93;;
6667;SDS011;3370;47.712;9.082;2023-07-20T14:33:11;2.67;;;2.07;;
6667;SDS011;3370;47.712;9.082;2023-07-20T14:35:36;3.30;;;2.20;;
6667;SDS011;3370;47.712;9.082;2023-07-20T14:38:02;2.30;;;1.70;;
6667;SDS011;3370;47.712;9.082;2023-07-20T14:40:28;3.43;;;2.53;;
6667;SDS011;3370;47.712;9.082;2023-07-20T14:42:55;4.93;;;2.20;;
6667;SDS011;3370;47.712;9.082;2023-07-20T14:45:21;3.73;;;2.20;;
6667;SDS011;3370;47.712;9.082;2023-07-20T14:47:47;4.83;;;2.40;;
6667;SDS011;3370;47.712;9.082;2023-07-20T14:50:21;3.20;;;1.97;;
6667;SDS011;3370;47.712;9.082;2023-07-20T14:52:47;3.50;;;2.37;;
6667;SDS011;3370;47.712;9.082;2023-07-20T14:55:14;2.47;;;1.97;;
6667;SDS011;3370;47.712;9.082;2023-07-20T14:57:40;2.57;;;2.17;;
6667;SDS011;3370;47.712;9.082;2023-07-20T15:00:06;1.80;;;1.70;;
6667;SDS011;3370;47.712;9.082;2023-07-20T15:02:35;2.83;;;1.80;;
6667;SDS011;3370;47.712;9.082;2023-07-20T15:05:07;3.23;;;1.87;;
6667;SDS011;3370;47.712;9.082;2023-07-20T15:07:34;6.40;;;2.00;;
6667;SDS011;3370;47.712;9.082;2023-07-20T15:10:00;5.03;;;2.00;;
6667;SDS011;3370;47.712;9.082;2023-07-20T15:12:27;6.23;;;2.13;;
6667;SDS011;3370;47.712;9.082;2023-07-20T15:15:03;1.70;;;1.60;;
6667;SDS011;3370;47.712;9.082;2023-07-20T15:17:36;3.17;;;2.20;;
6667;SDS011;3370;47.712;9.082;2023-07-20T15:20:04;2.50;;;2.10;;
6667;SDS011;3370;47.712;9.082;2023-07-20T15:22:32;3.90;;;2.20;;
6667;SDS011;3370;47.712;9.082;2023-07-20T15:25:00;2.97;;;2.03;;
6667;SDS011;3370;47.712;9.082;2023-07-20T15:27:30;6.00;;;2.03;;
6667;SDS011;3370;47.712;9.082;2023-07-20T15:29:56;2.33;;;1.90;;
6667;SDS011;3370;47.712;9.082;2023-07-20T15:32:22;2.50;;;1.70;;
6667;SDS011;3370;47.712;9.082;2023-07-20T15:34:48;2.90;;;1.80;;
6667;SDS011;3370;47.712;9.082;2023-07-20T15:37:14;2.70;;;1.83;;